sensor_id;sensor_type;location;lat;lon;timestamp;P1;durP1;ratioP1;P2;durP2;ratioP2
9775;SDS011;4927;52.472;13.108;2022-09-09T00:10:26;3.78;;;3.67;;
9775;SDS011;4927;52.472;13.108;2022-09-09T00:15:36;3.60;;;3.40;;
9775;SDS011;4927;52.472;13.108;2022-09-09T00:20:43;3.90;;;3.70;;
9775;SDS011;4927;52.472;13.108;2022-09-09T00:25:55;3.80;;;3.70;;
9775;SDS011;4927;52.472;13.108;2022-09-09T00:31:02;3.03;;;2.92;;
9775;SDS011;4927;52.472;13.108;2022-09-09T00:36:09;3.40;;;3.20;;
9775;SDS011;4927;52.472;13.108;2022-09-09T00:41:18;3.22;;;3.12;;
9775;SDS011;4927;52.472;13.108;2022-09-09T00:46:37;3.60;;;3.40;;
9775;SDS011;4927;52.472;13.108;2022-09-09T00:51:59;3.60;;;3.40;;
9775;SDS011;4927;52.472;13.108;2022-09-09T00:57:33;3.53;;;3.42;;
9775;SDS011;4927;52.472;13.108;2022-09-09T01:02:40;3.55;;;3.45;;
9775;SDS011;4927;52.472;13.108;2022-09-09T01:07:47;3.30;;;3.20;;
9775;SDS011;4927;52.472;13.108;2022-09-09T01:12:52;3.72;;;3.53;;
9775;SDS011;4927;52.472;13.108;2022-09-09T01:18:05;3.55;;;3.45;;
9775;SDS011;4927;52.472;13.108;2022-09-09T01:28:35;4.30;;;4.10;;
9775;SDS011;4927;52.472;13.108;2022-09-09T01:33:41;3.80;;;3.70;;
9775;SDS011;4927;52.472;13.108;2022-09-09T01:38:48;4.37;;;4.18;;
9775;SDS011;4927;52.472;13.108;2022-09-09T01:43:54;4.90;;;4.80;;
9775;SDS011;4927;52.472;13.108;2022-09-09T01:49:00;4.60;;;4.50;;
9775;SDS011;4927;52.472;13.108;2022-09-09T01:54:07;4.37;;;4.28;;
9775;SDS011;4927;52.472;13.108;2022-09-09T02:04:50;5.30;;;5.10;;
9775;SDS011;4927;52.472;13.108;2022-09-09T02:15:16;4.60;;;4.30;;
9775;SDS011;4927;52.472;13.108;2022-09-09T02:20:18;5.00;;;4.80;;
9775;SDS011;4927;52.472;13.108;2022-09-09T02:25:26;5.10;;;4.90;;
9775;SDS011;4927;52.472;13.108;2022-09-09T02:30:32;5.35;;;5.15;;
9775;SDS011;4927;52.472;13.108;2022-09-09T02:35:38;5.87;;;5.78;;
9775;SDS011;4927;52.472;13.108;2022-09-09T02:40:44;5.30;;;5.20;;
9775;SDS011;4927;52.472;13.108;2022-09-09T02:45:59;5.10;;;5.00;;
9775;SDS011;4927;52.472;13.108;2022-09-09T02:51:10;5.62;;;5.15;;
9775;SDS011;4927;52.472;13.108;2022-09-09T02:56:25;4.93;;;4.62;;
9775;SDS011;4927;52.472;13.108;2022-09-09T03:01:34;6.15;;;5.75;;
9775;SDS011;4927;52.472;13.108;2022-09-09T03:06:41;4.97;;;4.87;;
9775;SDS011;4927;52.472;13.108;2022-09-09T03:11:47;4.90;;;4.80;;
9775;SDS011;4927;52.472;13.108;2022-09-09T03:16:53;5.90;;;5.70;;
9775;SDS011;4927;52.472;13.108;2022-09-09T03:21:59;6.00;;;5.80;;
9775;SDS011;4927;52.472;13.108;2022-09-09T03:27:10;4.70;;;4.60;;
9775;SDS011;4927;52.472;13.108;2022-09-09T03:32:16;4.90;;;4.70;;
9775;SDS011;4927;52.472;13.108;2022-09-09T03:37:23;5.55;;;5.37;;
9775;SDS011;4927;52.472;13.108;2022-09-09T03:42:30;5.85;;;5.75;;
9775;SDS011;4927;52.472;13.108;2022-09-09T03:47:36;5.10;;;4.90;;
9775;SDS011;4927;52.472;13.108;2022-09-09T03:52:41;4.30;;;4.20;;
9775;SDS011;4927;52.472;13.108;2022-09-09T03:57:47;5.32;;;5.10;;
9775;SDS011;4927;52.472;13.108;2022-09-09T04:02:53;5.07;;;4.82;;
9775;SDS011;4927;52.472;13.108;2022-09-09T04:07:59;5.18;;;4.97;;
9775;SDS011;4927;52.472;13.108;2022-09-09T04:13:06;4.30;;;4.20;;
9775;SDS011;4927;52.472;13.108;2022-09-09T04:18:12;5.00;;;4.80;;
9775;SDS011;4927;52.472;13.108;2022-09-09T04:23:19;4.70;;;4.50;;
9775;SDS011;4927;52.472;13.108;2022-09-09T04:28:25;5.10;;;4.80;;
9775;SDS011;4927;52.472;13.108;2022-09-09T04:33:31;6.22;;;6.03;;
9775;SDS011;4927;52.472;13.108;2022-09-09T04:38:37;5.20;;;5.00;;
9775;SDS011;4927;52.472;13.108;2022-09-09T04:43:43;5.12;;;5.03;;
9775;SDS011;4927;52.472;13.108;2022-09-09T04:48:50;4.60;;;4.50;;
9775;SDS011;4927;52.472;13.108;2022-09-09T04:53:56;4.62;;;4.40;;
9775;SDS011;4927;52.472;13.108;2022-09-09T04:59:02;4.22;;;4.12;;
9775;SDS011;4927;52.472;13.108;2022-09-09T05:04:08;4.90;;;4.70;;
9775;SDS011;4927;52.472;13.108;2022-09-09T05:09:15;4.65;;;4.35;;
9775;SDS011;4927;52.472;13.108;2022-09-09T05:14:22;3.60;;;3.50;;
9775;SDS011;4927;52.472;13.108;2022-09-09T05:19:32;4.35;;;4.12;;
9775;SDS011;4927;52.472;13.108;2022-09-09T05:24:38;3.80;;;3.60;;
9775;SDS011;4927;52.472;13.108;2022-09-09T05:29:45;4.10;;;4.00;;
9775;SDS011;4927;52.472;13.108;2022-09-09T05:34:51;4.15;;;3.85;;
9775;SDS011;4927;52.472;13.108;2022-09-09T05:39:57;4.20;;;4.00;;
9775;SDS011;4927;52.472;13.108;2022-09-09T05:45:03;4.40;;;4.00;;
9775;SDS011;4927;52.472;13.108;2022-09-09T05:50:10;4.60;;;4.30;;
9775;SDS011;4927;52.472;13.108;2022-09-09T05:55:17;4.50;;;4.30;;
9775;SDS011;4927;52.472;13.108;2022-09-09T06:00:27;4.90;;;4.50;;
9775;SDS011;4927;52.472;13.108;2022-09-09T06:05:33;4.03;;;3.83;;
9775;SDS011;4927;52.472;13.108;2022-09-09T06:10:40;3.50;;;3.40;;
9775;SDS011;4927;52.472;13.108;2022-09-09T06:15:50;3.80;;;3.60;;
9775;SDS011;4927;52.472;13.108;2022-09-09T06:20:57;3.97;;;3.58;;
9775;SDS011;4927;52.472;13.108;2022-09-09T06:26:05;4.30;;;3.90;;
9775;SDS011;4927;52.472;13.108;2022-09-09T06:31:11;4.50;;;4.10;;
9775;SDS011;4927;52.472;13.108;2022-09-09T06:36:19;4.20;;;3.80;;
9775;SDS011;4927;52.472;13.108;2022-09-09T06:41:26;4.80;;;3.90;;
9775;SDS011;4927;52.472;13.108;2022-09-09T06:46:31;3.42;;;3.33;;
9775;SDS011;4927;52.472;13.108;2022-09-09T06:51:37;3.30;;;3.10;;
9775;SDS011;4927;52.472;13.108;2022-09-09T06:56:43;4.70;;;3.80;;
9775;SDS011;4927;52.472;13.108;2022-09-09T07:01:49;3.35;;;3.05;;
9775;SDS011;4927;52.472;13.108;2022-09-09T07:06:56;3.00;;;2.90;;
9775;SDS011;4927;52.472;13.108;2022-09-09T07:12:03;3.40;;;3.20;;
9775;SDS011;4927;52.472;13.108;2022-09-09T07:17:09;3.10;;;2.90;;
9775;SDS011;4927;52.472;13.108;2022-09-09T07:22:13;2.83;;;2.72;;
9775;SDS011;4927;52.472;13.108;2022-09-09T07:27:20;2.50;;;2.40;;
9775;SDS011;4927;52.472;13.108;2022-09-09T07:32:27;2.60;;;2.50;;
9775;SDS011;4927;52.472;13.108;2022-09-09T07:37:35;4.40;;;2.60;;
9775;SDS011;4927;52.472;13.108;2022-09-09T07:42:37;3.70;;;2.50;;
9775;SDS011;4927;52.472;13.108;2022-09-09T07:47:43;3.05;;;2.70;;
9775;SDS011;4927;52.472;13.108;2022-09-09T07:52:50;2.47;;;2.37;;
9775;SDS011;4927;52.472;13.108;2022-09-09T07:57:57;2.42;;;2.33;;
9775;SDS011;4927;52.472;13.108;2022-09-09T08:03:03;3.40;;;2.40;;
9775;SDS011;4927;52.472;13.108;2022-09-09T08:08:10;2.42;;;2.33;;
9775;SDS011;4927;52.472;13.108;2022-09-09T08:13:16;2.70;;;2.10;;
9775;SDS011;4927;52.472;13.108;2022-09-09T08:18:23;2.15;;;2.05;;
9775;SDS011;4927;52.472;13.108;2022-09-09T08:23:29;2.58;;;1.80;;
9775;SDS011;4927;52.472;13.108;2022-09-09T08:28:40;2.40;;;2.20;;
9775;SDS011;4927;52.472;13.108;2022-09-09T08:33:44;1.90;;;1.80;;
9775;SDS011;4927;52.472;13.108;2022-09-09T08:38:51;2.42;;;1.67;;
9775;SDS011;4927;52.472;13.108;2022-09-09T08:44:02;2.20;;;1.73;;
9775;SDS011;4927;52.472;13.108;2022-09-09T08:49:22;1.60;;;1.50;;
9775;SDS011;4927;52.472;13.108;2022-09-09T08:54:25;2.20;;;2.05;;
9775;SDS011;4927;52.472;13.108;2022-09-09T08:59:31;2.92;;;2.30;;
9775;SDS011;4927;52.472;13.108;2022-09-09T09:04:40;1.80;;;1.70;;
9775;SDS011;4927;52.472;13.108;2022-09-09T09:09:47;1.80;;;1.70;;
9775;SDS011;4927;52.472;13.108;2022-09-09T09:14:50;1.60;;;1.50;;
9775;SDS011;4927;52.472;13.108;2022-09-09T09:19:56;3.70;;;1.90;;
9775;SDS011;4927;52.472;13.108;2022-09-09T09:25:08;2.10;;;1.70;;
9775;SDS011;4927;52.472;13.108;2022-09-09T09:30:14;2.08;;;1.80;;
9775;SDS011;4927;52.472;13.108;2022-09-09T09:35:20;1.50;;;1.40;;
9775;SDS011;4927;52.472;13.108;2022-09-09T09:40:26;2.37;;;1.80;;
9775;SDS011;4927;52.472;13.108;2022-09-09T09:45:34;2.40;;;1.90;;
9775;SDS011;4927;52.472;13.108;2022-09-09T09:50:47;2.50;;;1.70;;
9775;SDS011;4927;52.472;13.108;2022-09-09T09:56:00;2.40;;;1.60;;
9775;SDS011;4927;52.472;13.108;2022-09-09T10:01:18;3.05;;;1.65;;
9775;SDS011;4927;52.472;13.108;2022-09-09T10:06:14;2.80;;;1.42;;
9775;SDS011;4927;52.472;13.108;2022-09-09T10:11:27;3.90;;;1.95;;
9775;SDS011;4927;52.472;13.108;2022-09-09T10:16:56;2.12;;;1.42;;
9775;SDS011;4927;52.472;13.108;2022-09-09T10:22:02;1.30;;;1.20;;
9775;SDS011;4927;52.472;13.108;2022-09-09T10:27:23;2.75;;;1.60;;
9775;SDS011;4927;52.472;13.108;2022-09-09T10:32:36;1.60;;;1.50;;
9775;SDS011;4927;52.472;13.108;2022-09-09T10:37:49;4.50;;;1.85;;
9775;SDS011;4927;52.472;13.108;2022-09-09T10:43:18;2.50;;;1.70;;
9775;SDS011;4927;52.472;13.108;2022-09-09T10:48:30;1.80;;;1.30;;
9775;SDS011;4927;52.472;13.108;2022-09-09T10:53:43;2.42;;;1.70;;
9775;SDS011;4927;52.472;13.108;2022-09-09T10:59:06;2.30;;;1.40;;
9775;SDS011;4927;52.472;13.108;2022-09-09T11:04:30;1.35;;;1.30;;
9775;SDS011;4927;52.472;13.108;2022-09-09T11:09:36;3.33;;;1.60;;
9775;SDS011;4927;52.472;13.108;2022-09-09T11:14:42;4.00;;;1.70;;
9775;SDS011;4927;52.472;13.108;2022-09-09T11:19:47;1.80;;;1.70;;
9775;SDS011;4927;52.472;13.108;2022-09-09T11:25:01;2.20;;;1.45;;
9775;SDS011;4927;52.472;13.108;2022-09-09T11:30:21;1.60;;;1.50;;
9775;SDS011;4927;52.472;13.108;2022-09-09T11:35:31;1.50;;;1.30;;
9775;SDS011;4927;52.472;13.108;2022-09-09T11:40:42;3.47;;;1.52;;
9775;SDS011;4927;52.472;13.108;2022-09-09T11:45:51;1.40;;;1.40;;
9775;SDS011;4927;52.472;13.108;2022-09-09T11:51:01;3.30;;;1.37;;
9775;SDS011;4927;52.472;13.108;2022-09-09T11:56:07;2.20;;;1.50;;
9775;SDS011;4927;52.472;13.108;2022-09-09T12:01:14;1.83;;;1.60;;
9775;SDS011;4927;52.472;13.108;2022-09-09T12:06:26;2.75;;;1.60;;
9775;SDS011;4927;52.472;13.108;2022-09-09T12:11:32;1.60;;;1.50;;
9775;SDS011;4927;52.472;13.108;2022-09-09T12:16:38;1.40;;;1.30;;
9775;SDS011;4927;52.472;13.108;2022-09-09T12:21:48;4.10;;;1.40;;
9775;SDS011;4927;52.472;13.108;2022-09-09T12:26:54;5.25;;;1.60;;
9775;SDS011;4927;52.472;13.108;2022-09-09T12:32:06;1.40;;;1.30;;
9775;SDS011;4927;52.472;13.108;2022-09-09T12:37:21;1.50;;;1.40;;
9775;SDS011;4927;52.472;13.108;2022-09-09T12:42:24;1.50;;;1.00;;
9775;SDS011;4927;52.472;13.108;2022-09-09T12:47:39;3.80;;;1.90;;
9775;SDS011;4927;52.472;13.108;2022-09-09T12:52:47;7.53;;;1.60;;
9775;SDS011;4927;52.472;13.108;2022-09-09T12:57:53;2.10;;;1.70;;
9775;SDS011;4927;52.472;13.108;2022-09-09T13:03:01;2.35;;;1.30;;
9775;SDS011;4927;52.472;13.108;2022-09-09T13:08:08;3.20;;;1.50;;
9775;SDS011;4927;52.472;13.108;2022-09-09T13:13:15;2.10;;;1.90;;
9775;SDS011;4927;52.472;13.108;2022-09-09T13:18:22;2.62;;;1.40;;
9775;SDS011;4927;52.472;13.108;2022-09-09T13:23:30;3.65;;;1.77;;
9775;SDS011;4927;52.472;13.108;2022-09-09T13:28:36;1.02;;;1.00;;
9775;SDS011;4927;52.472;13.108;2022-09-09T13:33:42;1.50;;;1.40;;
9775;SDS011;4927;52.472;13.108;2022-09-09T13:38:54;3.15;;;1.50;;
9775;SDS011;4927;52.472;13.108;2022-09-09T13:44:04;3.05;;;1.30;;
9775;SDS011;4927;52.472;13.108;2022-09-09T13:49:19;2.70;;;1.50;;
9775;SDS011;4927;52.472;13.108;2022-09-09T13:54:25;1.40;;;1.30;;
9775;SDS011;4927;52.472;13.108;2022-09-09T13:59:32;1.85;;;1.27;;
9775;SDS011;4927;52.472;13.108;2022-09-09T14:04:39;1.70;;;1.50;;
9775;SDS011;4927;52.472;13.108;2022-09-09T14:09:45;2.12;;;1.20;;
9775;SDS011;4927;52.472;13.108;2022-09-09T14:14:52;1.00;;;1.00;;
9775;SDS011;4927;52.472;13.108;2022-09-09T14:19:58;1.33;;;1.23;;
9775;SDS011;4927;52.472;13.108;2022-09-09T14:25:04;2.00;;;0.98;;
9775;SDS011;4927;52.472;13.108;2022-09-09T14:30:12;1.27;;;1.10;;
9775;SDS011;4927;52.472;13.108;2022-09-09T14:35:19;1.00;;;0.90;;
9775;SDS011;4927;52.472;13.108;2022-09-09T14:40:25;1.80;;;0.90;;
9775;SDS011;4927;52.472;13.108;2022-09-09T14:45:31;1.20;;;1.10;;
9775;SDS011;4927;52.472;13.108;2022-09-09T14:50:38;1.10;;;1.00;;
9775;SDS011;4927;52.472;13.108;2022-09-09T14:55:44;1.40;;;1.30;;
9775;SDS011;4927;52.472;13.108;2022-09-09T15:00:50;1.40;;;1.30;;
9775;SDS011;4927;52.472;13.108;2022-09-09T15:05:56;2.12;;;2.03;;
9775;SDS011;4927;52.472;13.108;2022-09-09T15:11:04;1.90;;;1.40;;
9775;SDS011;4927;52.472;13.108;2022-09-09T15:16:15;1.37;;;1.23;;
9775;SDS011;4927;52.472;13.108;2022-09-09T15:21:22;1.10;;;1.00;;
9775;SDS011;4927;52.472;13.108;2022-09-09T15:26:26;2.30;;;1.70;;
9775;SDS011;4927;52.472;13.108;2022-09-09T15:31:31;1.70;;;1.60;;
9775;SDS011;4927;52.472;13.108;2022-09-09T15:36:39;2.10;;;1.90;;
9775;SDS011;4927;52.472;13.108;2022-09-09T15:41:44;2.65;;;2.12;;
9775;SDS011;4927;52.472;13.108;2022-09-09T15:46:52;1.70;;;1.60;;
9775;SDS011;4927;52.472;13.108;2022-09-09T15:51:59;3.10;;;2.00;;
9775;SDS011;4927;52.472;13.108;2022-09-09T15:57:05;2.05;;;1.95;;
9775;SDS011;4927;52.472;13.108;2022-09-09T16:02:11;1.70;;;1.60;;
9775;SDS011;4927;52.472;13.108;2022-09-09T16:07:17;1.80;;;1.70;;
9775;SDS011;4927;52.472;13.108;2022-09-09T16:12:23;1.60;;;1.50;;
9775;SDS011;4927;52.472;13.108;2022-09-09T16:17:29;1.62;;;1.23;;
9775;SDS011;4927;52.472;13.108;2022-09-09T16:22:36;1.73;;;1.58;;
9775;SDS011;4927;52.472;13.108;2022-09-09T16:27:42;4.10;;;1.65;;
9775;SDS011;4927;52.472;13.108;2022-09-09T16:32:49;2.80;;;1.67;;
9775;SDS011;4927;52.472;13.108;2022-09-09T16:37:55;2.10;;;1.40;;
9775;SDS011;4927;52.472;13.108;2022-09-09T16:43:02;1.70;;;1.60;;
9775;SDS011;4927;52.472;13.108;2022-09-09T16:48:07;1.15;;;1.15;;
9775;SDS011;4927;52.472;13.108;2022-09-09T16:53:14;2.15;;;1.37;;
9775;SDS011;4927;52.472;13.108;2022-09-09T16:58:18;1.55;;;1.12;;
9775;SDS011;4927;52.472;13.108;2022-09-09T17:03:26;1.45;;;1.40;;
9775;SDS011;4927;52.472;13.108;2022-09-09T17:08:32;1.73;;;1.62;;
9775;SDS011;4927;52.472;13.108;2022-09-09T17:13:40;2.60;;;1.50;;
9775;SDS011;4927;52.472;13.108;2022-09-09T17:18:45;1.98;;;1.55;;
9775;SDS011;4927;52.472;13.108;2022-09-09T17:23:52;1.77;;;1.60;;
9775;SDS011;4927;52.472;13.108;2022-09-09T17:28:57;1.45;;;1.42;;
9775;SDS011;4927;52.472;13.108;2022-09-09T17:34:04;3.40;;;1.90;;
9775;SDS011;4927;52.472;13.108;2022-09-09T17:39:10;1.90;;;1.80;;
9775;SDS011;4927;52.472;13.108;2022-09-09T17:44:16;4.40;;;1.85;;
9775;SDS011;4927;52.472;13.108;2022-09-09T17:49:23;4.10;;;2.67;;
9775;SDS011;4927;52.472;13.108;2022-09-09T17:54:29;2.90;;;2.70;;
9775;SDS011;4927;52.472;13.108;2022-09-09T17:59:36;2.30;;;2.20;;
9775;SDS011;4927;52.472;13.108;2022-09-09T18:04:42;2.80;;;2.50;;
9775;SDS011;4927;52.472;13.108;2022-09-09T18:09:46;20.30;;;2.80;;
9775;SDS011;4927;52.472;13.108;2022-09-09T18:14:53;3.17;;;2.62;;
9775;SDS011;4927;52.472;13.108;2022-09-09T18:19:59;3.10;;;2.30;;
9775;SDS011;4927;52.472;13.108;2022-09-09T18:25:05;4.00;;;2.10;;
9775;SDS011;4927;52.472;13.108;2022-09-09T18:30:12;2.87;;;2.00;;
9775;SDS011;4927;52.472;13.108;2022-09-09T18:35:19;4.70;;;2.47;;
9775;SDS011;4927;52.472;13.108;2022-09-09T18:40:25;2.15;;;2.00;;
9775;SDS011;4927;52.472;13.108;2022-09-09T18:45:34;2.20;;;1.90;;
9775;SDS011;4927;52.472;13.108;2022-09-09T18:50:38;2.22;;;1.60;;
9775;SDS011;4927;52.472;13.108;2022-09-09T18:55:45;1.40;;;1.30;;
9775;SDS011;4927;52.472;13.108;2022-09-09T19:00:51;1.62;;;1.20;;
9775;SDS011;4927;52.472;13.108;2022-09-09T19:06:00;1.90;;;1.20;;
9775;SDS011;4927;52.472;13.108;2022-09-09T19:11:06;1.80;;;1.30;;
9775;SDS011;4927;52.472;13.108;2022-09-09T19:16:12;1.70;;;1.55;;
9775;SDS011;4927;52.472;13.108;2022-09-09T19:21:21;1.35;;;1.25;;
9775;SDS011;4927;52.472;13.108;2022-09-09T19:26:28;1.37;;;1.37;;
9775;SDS011;4927;52.472;13.108;2022-09-09T19:31:33;2.10;;;1.10;;
9775;SDS011;4927;52.472;13.108;2022-09-09T19:36:40;1.90;;;1.27;;
9775;SDS011;4927;52.472;13.108;2022-09-09T19:41:46;2.20;;;1.10;;
9775;SDS011;4927;52.472;13.108;2022-09-09T19:46:52;1.30;;;1.20;;
9775;SDS011;4927;52.472;13.108;2022-09-09T19:51:58;1.30;;;1.30;;
9775;SDS011;4927;52.472;13.108;2022-09-09T19:57:27;1.43;;;1.30;;
9775;SDS011;4927;52.472;13.108;2022-09-09T20:02:34;1.50;;;1.40;;
9775;SDS011;4927;52.472;13.108;2022-09-09T20:07:41;1.40;;;1.40;;
9775;SDS011;4927;52.472;13.108;2022-09-09T20:12:47;1.90;;;1.30;;
9775;SDS011;4927;52.472;13.108;2022-09-09T20:17:53;1.50;;;1.40;;
9775;SDS011;4927;52.472;13.108;2022-09-09T20:22:59;1.20;;;1.10;;
9775;SDS011;4927;52.472;13.108;2022-09-09T20:28:06;1.40;;;1.30;;
9775;SDS011;4927;52.472;13.108;2022-09-09T20:33:12;1.10;;;1.10;;
9775;SDS011;4927;52.472;13.108;2022-09-09T20:38:19;1.20;;;1.10;;
9775;SDS011;4927;52.472;13.108;2022-09-09T20:43:25;1.95;;;1.35;;
9775;SDS011;4927;52.472;13.108;2022-09-09T20:48:32;1.62;;;1.30;;
9775;SDS011;4927;52.472;13.108;2022-09-09T20:53:38;3.90;;;1.40;;
9775;SDS011;4927;52.472;13.108;2022-09-09T20:58:45;2.80;;;1.20;;
9775;SDS011;4927;52.472;13.108;2022-09-09T21:03:51;1.40;;;1.30;;
9775;SDS011;4927;52.472;13.108;2022-09-09T21:08:55;2.00;;;1.80;;
9775;SDS011;4927;52.472;13.108;2022-09-09T21:14:03;1.58;;;1.48;;
9775;SDS011;4927;52.472;13.108;2022-09-09T21:19:09;2.00;;;1.10;;
9775;SDS011;4927;52.472;13.108;2022-09-09T21:24:15;1.80;;;1.40;;
9775;SDS011;4927;52.472;13.108;2022-09-09T21:29:21;1.25;;;1.25;;
9775;SDS011;4927;52.472;13.108;2022-09-09T21:34:28;1.80;;;1.40;;
9775;SDS011;4927;52.472;13.108;2022-09-09T21:39:34;2.30;;;1.60;;
9775;SDS011;4927;52.472;13.108;2022-09-09T21:44:41;1.20;;;1.10;;
9775;SDS011;4927;52.472;13.108;2022-09-09T21:49:46;1.33;;;1.23;;
9775;SDS011;4927;52.472;13.108;2022-09-09T21:54:52;1.30;;;1.20;;
9775;SDS011;4927;52.472;13.108;2022-09-09T22:00:04;1.40;;;1.40;;
9775;SDS011;4927;52.472;13.108;2022-09-09T22:15:41;1.70;;;1.60;;
9775;SDS011;4927;52.472;13.108;2022-09-09T22:20:46;1.50;;;1.40;;
9775;SDS011;4927;52.472;13.108;2022-09-09T22:25:53;1.58;;;1.48;;
9775;SDS011;4927;52.472;13.108;2022-09-09T22:31:00;1.70;;;1.60;;
9775;SDS011;4927;52.472;13.108;2022-09-09T22:36:06;1.30;;;1.20;;
9775;SDS011;4927;52.472;13.108;2022-09-09T22:41:13;1.30;;;1.30;;
9775;SDS011;4927;52.472;13.108;2022-09-09T22:46:19;3.60;;;1.42;;
9775;SDS011;4927;52.472;13.108;2022-09-09T22:51:29;1.70;;;1.60;;
9775;SDS011;4927;52.472;13.108;2022-09-09T22:56:35;1.80;;;1.70;;
9775;SDS011;4927;52.472;13.108;2022-09-09T23:01:42;1.90;;;1.80;;
9775;SDS011;4927;52.472;13.108;2022-09-09T23:06:48;2.90;;;1.60;;
9775;SDS011;4927;52.472;13.108;2022-09-09T23:11:55;2.55;;;2.33;;
9775;SDS011;4927;52.472;13.108;2022-09-09T23:17:02;1.80;;;1.70;;
9775;SDS011;4927;52.472;13.108;2022-09-09T23:22:08;1.83;;;1.73;;
9775;SDS011;4927;52.472;13.108;2022-09-09T23:27:15;1.90;;;1.70;;
9775;SDS011;4927;52.472;13.108;2022-09-09T23:32:22;3.10;;;1.40;;
9775;SDS011;4927;52.472;13.108;2022-09-09T23:37:29;1.80;;;1.60;;
9775;SDS011;4927;52.472;13.108;2022-09-09T23:42:35;1.60;;;1.60;;
9775;SDS011;4927;52.472;13.108;2022-09-09T23:47:41;3.60;;;1.80;;
9775;SDS011;4927;52.472;13.108;2022-09-09T23:52:47;1.80;;;1.70;;
9775;SDS011;4927;52.472;13.108;2022-09-09T23:57:54;1.90;;;1.80;;
